Aviation Digital Data Service (ADDS)

Output produced by METARs form (1005 UTC 19 November 2018)
found at http://www.aviationweather.gov/metar/data/
 
RJTT 190930Z VRB02KT 9999 FEW010 OVC080 15/12 Q1013 BECMG 36006KT
TAF AMD RJTT 190804Z 1908/2012 12010KT 9999 FEW020 BKN040 
     BECMG 1909/1911 34014KT 
     BECMG 2003/2006 04006KT